createdAt,value
2018-10-19T00:00:50.955Z,0.00
2018-10-19T00:01:51.181Z,0.00
2018-10-19T00:02:51.409Z,0.00
2018-10-19T00:03:51.637Z,0.00
2018-10-19T00:04:51.869Z,0.00
2018-10-19T00:05:52.092Z,0.00
2018-10-19T00:06:52.322Z,0.00
2018-10-19T00:07:52.544Z,0.00
2018-10-19T00:08:52.815Z,0.00
2018-10-19T00:09:52.996Z,0.00
2018-10-19T00:10:53.262Z,0.00
2018-10-19T00:11:53.454Z,0.00
2018-10-19T00:12:53.773Z,0.00
2018-10-19T00:13:53.908Z,0.00
2018-10-19T00:14:54.187Z,0.00
2018-10-19T00:15:54.363Z,0.00
2018-10-19T00:16:54.598Z,0.00
2018-10-19T00:17:54.812Z,0.00
2018-10-19T00:18:55.041Z,0.00
2018-10-19T00:19:55.266Z,0.00
2018-10-19T00:20:55.531Z,0.00
2018-10-19T00:21:55.718Z,0.00
2018-10-19T00:22:55.945Z,0.00
2018-10-19T00:23:56.168Z,0.00
2018-10-19T00:24:56.398Z,0.00
2018-10-19T00:25:56.636Z,0.00
2018-10-19T00:26:56.898Z,0.00
2018-10-19T00:27:57.080Z,0.00
2018-10-19T00:28:57.371Z,0.00
2018-10-19T00:29:57.533Z,0.00
2018-10-19T00:30:57.763Z,0.00
2018-10-19T00:31:57.987Z,0.00
2018-10-19T00:32:58.275Z,0.00
2018-10-19T00:33:58.440Z,0.00
2018-10-19T00:34:58.712Z,0.00
2018-10-19T00:35:58.897Z,0.00
2018-10-19T00:36:59.125Z,0.00
2018-10-19T00:37:59.353Z,0.00
2018-10-19T00:38:59.595Z,0.00
2018-10-19T00:39:59.805Z,0.00
2018-10-19T00:41:00.084Z,0.00
2018-10-19T00:42:00.257Z,0.00
2018-10-19T00:43:00.485Z,0.00
2018-10-19T00:44:00.711Z,0.00
2018-10-19T00:45:00.956Z,0.00
2018-10-19T00:46:01.162Z,0.00
2018-10-19T00:47:01.397Z,0.00
2018-10-19T00:48:01.616Z,0.00
2018-10-19T00:49:01.842Z,0.00
2018-10-19T00:50:02.069Z,0.00
2018-10-19T00:51:02.342Z,0.00
2018-10-19T00:52:02.524Z,0.00
2018-10-19T00:53:02.800Z,0.00
2018-10-19T00:54:02.980Z,0.00
2018-10-19T00:55:03.210Z,0.00
2018-10-19T00:56:03.430Z,0.00
2018-10-19T00:57:03.675Z,0.00
2018-10-19T00:58:03.888Z,0.00
2018-10-19T00:59:04.156Z,0.00
2018-10-19T01:00:04.348Z,0.00
2018-10-19T01:01:04.570Z,0.00
2018-10-19T01:02:04.794Z,0.00
2018-10-19T01:03:05.064Z,0.00
2018-10-19T01:04:05.247Z,0.00
2018-10-19T01:05:05.499Z,0.00
2018-10-19T01:06:05.702Z,0.00
2018-10-19T01:07:05.930Z,0.00
2018-10-19T01:08:06.156Z,0.00
2018-10-19T01:09:06.441Z,0.00
2018-10-19T01:10:06.601Z,0.00
2018-10-19T01:11:06.882Z,0.00
2018-10-19T01:12:07.057Z,0.00
2018-10-19T01:13:07.283Z,0.00
2018-10-19T01:14:07.514Z,0.00
2018-10-19T01:15:07.780Z,0.00
2018-10-19T01:16:07.964Z,0.00
2018-10-19T01:17:08.249Z,0.00
2018-10-19T01:18:08.420Z,0.00
2018-10-19T01:19:08.650Z,0.00
2018-10-19T01:20:08.876Z,0.00
2018-10-19T01:21:09.153Z,0.00
2018-10-19T01:22:09.315Z,0.00
2018-10-19T01:23:09.587Z,0.00
2018-10-19T01:24:09.767Z,0.00
2018-10-19T01:25:10.001Z,0.00
2018-10-19T01:26:10.219Z,0.00
2018-10-19T01:27:10.504Z,0.00
2018-10-19T01:28:10.673Z,0.00
2018-10-19T01:29:10.949Z,0.00
2018-10-19T01:30:11.129Z,0.00
2018-10-19T01:31:11.354Z,0.00
2018-10-19T01:32:11.587Z,0.00
2018-10-19T01:33:11.892Z,0.00
2018-10-19T01:34:12.040Z,0.00
2018-10-19T01:35:12.292Z,0.00
2018-10-19T01:36:12.500Z,0.00
2018-10-19T01:37:12.724Z,0.00
2018-10-19T01:38:12.952Z,0.00
2018-10-19T01:39:13.242Z,0.00
2018-10-19T01:40:13.407Z,0.00
2018-10-19T01:41:13.698Z,0.00
2018-10-19T01:42:13.861Z,0.00
2018-10-19T01:43:14.093Z,0.00
2018-10-19T01:44:14.321Z,0.00
2018-10-19T01:45:14.621Z,0.00
2018-10-19T01:46:14.777Z,0.00
2018-10-19T01:47:15.043Z,0.00
2018-10-19T01:48:15.231Z,0.00
2018-10-19T01:49:15.453Z,0.00
2018-10-19T01:50:15.685Z,0.00
2018-10-19T01:51:15.935Z,0.00
2018-10-19T01:52:16.140Z,0.00
2018-10-19T01:53:16.505Z,0.00
2018-10-19T01:54:16.596Z,0.00
2018-10-19T01:55:16.825Z,0.00
2018-10-19T01:56:17.051Z,0.00
2018-10-19T01:57:17.291Z,0.00
2018-10-19T01:58:17.508Z,0.00
2018-10-19T01:59:17.790Z,0.00
2018-10-19T02:00:17.952Z,0.00
2018-10-19T02:01:18.199Z,0.00
2018-10-19T02:02:18.423Z,0.00
2018-10-19T02:03:18.650Z,0.00
2018-10-19T02:04:18.877Z,0.00
2018-10-19T02:05:19.105Z,0.00
2018-10-19T02:06:19.331Z,0.00
2018-10-19T02:07:19.554Z,0.00
2018-10-19T02:08:19.791Z,0.00
2018-10-19T02:09:20.015Z,0.00
2018-10-19T02:10:20.240Z,0.00
2018-10-19T02:11:20.465Z,0.00
2018-10-19T02:12:20.694Z,0.00
2018-10-19T02:13:20.926Z,0.00
2018-10-19T02:14:21.151Z,0.00
2018-10-19T02:15:21.372Z,0.00
2018-10-19T02:16:21.595Z,0.00
2018-10-19T02:17:21.818Z,0.00
2018-10-19T02:18:22.050Z,0.00
2018-10-19T02:19:22.274Z,0.00
2018-10-19T02:20:22.501Z,0.00
2018-10-19T02:21:22.728Z,0.00
2018-10-19T02:22:22.958Z,0.00
2018-10-19T02:23:23.183Z,0.00
2018-10-19T02:24:23.411Z,0.00
2018-10-19T02:25:23.637Z,0.00
2018-10-19T02:26:23.866Z,0.00
2018-10-19T02:27:24.090Z,0.00
2018-10-19T02:28:24.317Z,0.00
2018-10-19T02:29:24.543Z,0.00
2018-10-19T02:30:24.770Z,0.00
2018-10-19T02:31:25.003Z,0.00
2018-10-19T02:32:25.234Z,0.00
2018-10-19T02:33:25.462Z,0.00
2018-10-19T02:34:25.690Z,0.00
2018-10-19T02:35:25.917Z,0.00
2018-10-19T02:36:26.150Z,0.00
2018-10-19T02:37:26.373Z,0.00
2018-10-19T02:38:26.602Z,0.00
2018-10-19T02:39:26.830Z,0.00
2018-10-19T02:40:27.056Z,0.00
2018-10-19T02:41:27.285Z,0.00
2018-10-19T02:42:27.519Z,0.00
2018-10-19T02:43:27.743Z,0.00
2018-10-19T02:44:27.968Z,0.00
2018-10-19T02:45:28.202Z,0.00
2018-10-19T02:46:28.420Z,0.00
2018-10-19T02:47:28.651Z,0.00
2018-10-19T02:48:28.877Z,0.00
2018-10-19T02:49:29.103Z,0.00
2018-10-19T02:50:29.327Z,0.00
2018-10-19T02:51:29.557Z,0.00
2018-10-19T02:52:29.786Z,0.00
2018-10-19T02:53:29.999Z,0.00
2018-10-19T02:54:30.244Z,0.00
2018-10-19T02:55:30.471Z,0.00
2018-10-19T02:56:30.705Z,0.00
2018-10-19T02:57:30.932Z,0.00
2018-10-19T02:58:31.160Z,0.00
2018-10-19T02:59:31.384Z,0.00
2018-10-19T03:00:31.613Z,0.00
2018-10-19T03:01:31.841Z,0.00
2018-10-19T03:02:32.066Z,0.00
2018-10-19T03:03:32.297Z,0.00
2018-10-19T03:04:32.521Z,0.00
2018-10-19T03:05:32.747Z,0.00
2018-10-19T03:06:32.984Z,0.00
2018-10-19T03:07:33.205Z,0.00
2018-10-19T03:08:33.425Z,0.00
2018-10-19T03:09:33.652Z,0.00
2018-10-19T03:10:33.877Z,0.00
2018-10-19T03:11:34.130Z,0.00
2018-10-19T03:12:34.330Z,0.00
2018-10-19T03:13:34.612Z,0.00
2018-10-19T03:14:34.785Z,0.00
2018-10-19T03:15:35.012Z,0.00
2018-10-19T03:16:35.239Z,0.00
2018-10-19T03:17:35.468Z,0.00
2018-10-19T03:18:35.693Z,0.00
2018-10-19T03:19:35.918Z,0.00
2018-10-19T03:20:36.149Z,0.00
2018-10-19T03:21:36.379Z,0.00
2018-10-19T03:22:36.607Z,0.00
2018-10-19T03:23:36.836Z,0.00
2018-10-19T03:24:37.060Z,0.00
2018-10-19T03:25:37.293Z,0.00
2018-10-19T03:26:37.519Z,0.00
2018-10-19T03:27:37.743Z,0.00
2018-10-19T03:28:38.011Z,0.00
2018-10-19T03:29:38.202Z,0.00
2018-10-19T03:30:38.424Z,0.00
2018-10-19T03:31:38.651Z,0.00
2018-10-19T03:32:38.877Z,0.00
2018-10-19T03:33:39.102Z,0.00
2018-10-19T03:34:39.327Z,0.00
2018-10-19T03:35:39.558Z,0.00
2018-10-19T03:36:39.786Z,0.00
2018-10-19T03:37:40.015Z,0.00
2018-10-19T03:38:40.240Z,0.00
2018-10-19T03:39:40.470Z,0.00
2018-10-19T03:40:40.699Z,0.00
2018-10-19T03:41:40.921Z,0.00
2018-10-19T03:42:41.155Z,0.00
2018-10-19T03:43:41.380Z,0.00
2018-10-19T03:44:41.610Z,0.00
2018-10-19T03:45:41.839Z,0.00
2018-10-19T03:46:42.077Z,0.00
2018-10-19T03:47:42.299Z,0.00
2018-10-19T03:48:42.524Z,0.00
2018-10-19T03:49:42.756Z,0.00
2018-10-19T03:50:42.981Z,0.00
2018-10-19T03:51:43.206Z,0.00
2018-10-19T03:52:43.439Z,0.00
2018-10-19T03:53:43.672Z,0.00
2018-10-19T03:54:43.896Z,0.00
2018-10-19T03:55:44.125Z,0.00
2018-10-19T03:56:44.351Z,0.00
2018-10-19T03:57:44.586Z,0.00
2018-10-19T03:58:44.811Z,0.00
2018-10-19T03:59:45.040Z,0.00
2018-10-19T04:00:45.266Z,0.00
2018-10-19T04:01:45.493Z,0.00
2018-10-19T04:02:45.717Z,0.00
2018-10-19T04:03:46.020Z,0.00
2018-10-19T04:04:46.174Z,0.00
2018-10-19T04:05:46.447Z,0.00
2018-10-19T04:06:46.675Z,0.00
2018-10-19T04:07:46.901Z,0.00
2018-10-19T04:08:47.128Z,0.00
2018-10-19T04:09:47.357Z,0.00
2018-10-19T04:10:47.584Z,0.00
2018-10-19T04:11:47.813Z,0.00
2018-10-19T04:12:48.040Z,0.00
2018-10-19T04:13:48.265Z,0.00
2018-10-19T04:14:48.496Z,0.00
2018-10-19T04:15:48.721Z,0.00
2018-10-19T04:16:48.954Z,0.00
2018-10-19T04:17:49.188Z,0.00
2018-10-19T04:18:49.410Z,0.00
2018-10-19T04:19:49.637Z,0.00
2018-10-19T04:20:49.864Z,0.00
2018-10-19T04:21:50.093Z,0.00
2018-10-19T04:22:50.320Z,0.00
2018-10-19T04:23:50.549Z,0.00
2018-10-19T04:24:50.774Z,0.00
2018-10-19T04:25:51.001Z,0.00
2018-10-19T04:26:51.228Z,0.00
2018-10-19T04:27:51.456Z,0.00
2018-10-19T04:28:51.729Z,0.00
2018-10-19T04:29:51.974Z,0.00
2018-10-19T04:30:52.218Z,0.00
2018-10-19T04:31:52.431Z,0.00
2018-10-19T04:32:52.661Z,0.00
2018-10-19T04:33:52.885Z,0.00
2018-10-19T04:34:53.161Z,0.00
2018-10-19T04:35:53.340Z,0.00
2018-10-19T04:36:53.568Z,0.00
2018-10-19T04:37:53.792Z,0.00
2018-10-19T04:38:54.070Z,0.00
2018-10-19T04:39:54.244Z,0.00
2018-10-19T04:40:54.528Z,0.00
2018-10-19T04:41:54.727Z,0.00
2018-10-19T04:42:54.930Z,0.00
2018-10-19T04:43:55.160Z,0.00
2018-10-19T04:44:55.391Z,0.00
2018-10-19T04:45:55.617Z,0.00
2018-10-19T04:46:55.896Z,0.00
2018-10-19T04:47:56.063Z,0.00
2018-10-19T04:48:56.292Z,0.00
2018-10-19T04:49:56.516Z,0.00
2018-10-19T04:50:56.779Z,0.00
2018-10-19T04:51:56.971Z,0.00
2018-10-19T04:52:57.202Z,0.00
2018-10-19T04:53:57.427Z,0.00
2018-10-19T04:54:57.654Z,0.00
2018-10-19T04:55:57.878Z,0.00
2018-10-19T04:56:58.163Z,0.00
2018-10-19T04:57:58.339Z,0.00
2018-10-19T04:58:58.570Z,0.00
2018-10-19T04:59:58.799Z,0.00
2018-10-19T05:00:59.019Z,0.00
2018-10-19T05:01:59.254Z,0.00
2018-10-19T05:02:59.511Z,0.00
2018-10-19T05:03:59.701Z,0.00
2018-10-19T05:05:00.023Z,0.00
2018-10-19T05:06:00.280Z,0.00
2018-10-19T05:07:00.381Z,0.00
2018-10-19T05:08:00.613Z,0.00
2018-10-19T05:09:00.835Z,0.00
2018-10-19T05:10:01.065Z,0.00
2018-10-19T05:11:01.328Z,0.00
2018-10-19T05:12:01.510Z,0.00
2018-10-19T05:13:01.778Z,0.00
2018-10-19T05:14:01.969Z,0.00
2018-10-19T05:15:02.193Z,0.00
2018-10-19T05:16:02.414Z,0.00
2018-10-19T05:17:02.689Z,0.00
2018-10-19T05:18:02.867Z,0.00
2018-10-19T05:19:03.102Z,0.00
2018-10-19T05:20:03.345Z,4.00
2018-10-19T05:21:03.546Z,4.00
2018-10-19T05:22:03.781Z,0.00
2018-10-19T05:23:04.057Z,0.00
2018-10-19T05:24:04.235Z,4.00
2018-10-19T05:25:04.468Z,4.00
2018-10-19T05:26:04.717Z,4.00
2018-10-19T05:27:04.939Z,4.00
2018-10-19T05:28:05.197Z,8.00
2018-10-19T05:29:06.004Z,8.00
2018-10-19T05:30:05.565Z,8.00
2018-10-19T05:31:05.794Z,8.00
2018-10-19T05:32:06.049Z,8.00
2018-10-19T05:33:06.253Z,12.00
2018-10-19T05:34:06.487Z,12.00
2018-10-19T05:35:06.746Z,16.00
2018-10-19T05:36:07.001Z,16.00
2018-10-19T05:37:07.163Z,20.00
2018-10-19T05:38:07.456Z,24.00
2018-10-19T05:39:07.621Z,24.00
2018-10-19T05:40:07.845Z,28.00
2018-10-19T05:41:08.087Z,28.00
2018-10-19T05:42:08.297Z,32.00
2018-10-19T05:43:08.521Z,32.00
2018-10-19T05:44:08.761Z,32.00
2018-10-19T05:45:08.976Z,40.00
2018-10-19T05:46:09.202Z,40.00
2018-10-19T05:47:09.504Z,44.00
2018-10-19T05:48:09.653Z,48.00
2018-10-19T05:49:09.880Z,52.00
2018-10-19T05:50:10.208Z,56.00
2018-10-19T05:51:10.335Z,64.00
2018-10-19T05:52:10.596Z,72.00
2018-10-19T05:53:10.847Z,84.00
2018-10-19T05:54:11.018Z,88.00
2018-10-19T05:55:11.247Z,96.00
2018-10-19T05:56:11.566Z,100.00
2018-10-19T05:57:12.468Z,104.00
2018-10-19T05:58:11.964Z,108.00
2018-10-19T05:59:12.261Z,112.00
2018-10-19T06:00:12.435Z,120.00
2018-10-19T06:01:12.664Z,124.00
2018-10-19T06:02:12.989Z,132.00
2018-10-19T06:03:13.970Z,144.00
2018-10-19T06:04:13.320Z,144.00
2018-10-19T06:05:13.592Z,148.00
2018-10-19T06:06:13.776Z,160.00
2018-10-19T06:07:14.005Z,164.00
2018-10-19T06:08:14.333Z,172.00
2018-10-19T06:09:14.456Z,180.00
2018-10-19T06:10:14.686Z,188.00
2018-10-19T06:11:14.986Z,188.00
2018-10-19T06:12:15.141Z,188.00
2018-10-19T06:13:15.367Z,200.00
2018-10-19T06:14:15.646Z,220.00
2018-10-19T06:15:15.820Z,232.00
2018-10-19T06:16:16.054Z,240.00
2018-10-19T06:17:16.283Z,252.00
2018-10-19T06:18:16.510Z,272.00
2018-10-19T06:19:16.740Z,296.00
2018-10-19T06:20:17.012Z,304.00
2018-10-19T06:21:17.319Z,312.00
2018-10-19T06:22:17.432Z,328.00
2018-10-19T06:23:17.674Z,348.00
2018-10-19T06:24:17.883Z,384.00
2018-10-19T06:25:18.110Z,420.00
2018-10-19T06:26:18.345Z,456.00
2018-10-19T06:27:18.568Z,480.00
2018-10-19T06:28:18.794Z,488.00
2018-10-19T06:29:19.022Z,488.00
2018-10-19T06:30:19.249Z,500.00
2018-10-19T06:31:19.475Z,520.00
2018-10-19T06:32:19.704Z,536.00
2018-10-19T06:33:19.929Z,540.00
2018-10-19T06:34:20.159Z,524.00
2018-10-19T06:35:20.388Z,524.00
2018-10-19T06:36:20.615Z,560.00
2018-10-19T06:37:20.842Z,608.00
2018-10-19T06:38:21.073Z,652.00
2018-10-19T06:39:21.297Z,684.00
2018-10-19T06:40:21.523Z,704.00
2018-10-19T06:41:21.755Z,724.00
2018-10-19T06:42:21.979Z,760.00
2018-10-19T06:43:22.206Z,796.00
2018-10-19T06:44:22.433Z,824.00
2018-10-19T06:45:22.661Z,824.00
2018-10-19T06:46:22.892Z,828.00
2018-10-19T06:47:23.185Z,840.00
2018-10-19T06:48:23.345Z,808.00
2018-10-19T06:49:23.578Z,768.00
2018-10-19T06:50:23.801Z,744.00
2018-10-19T06:51:24.054Z,756.00
2018-10-19T06:52:24.259Z,772.00
2018-10-19T06:53:24.501Z,756.00
2018-10-19T06:54:24.719Z,752.00
2018-10-19T06:55:24.941Z,776.00
2018-10-19T06:56:25.167Z,832.00
2018-10-19T06:57:25.390Z,884.00
2018-10-19T06:58:25.617Z,912.00
2018-10-19T06:59:26.493Z,916.00
2018-10-19T07:00:26.082Z,960.00
2018-10-19T07:01:26.980Z,956.00
2018-10-19T07:02:26.593Z,964.00
2018-10-19T07:03:26.825Z,968.00
2018-10-19T07:04:27.047Z,920.00
2018-10-19T07:05:27.279Z,876.00
2018-10-19T07:06:27.503Z,824.00
2018-10-19T07:07:27.728Z,752.00
2018-10-19T07:08:27.993Z,692.00
2018-10-19T07:09:28.983Z,676.00
2018-10-19T07:10:28.982Z,692.00
2018-10-19T07:11:28.724Z,716.00
2018-10-19T07:12:28.952Z,740.00
2018-10-19T07:13:29.174Z,784.00
2018-10-19T07:14:29.402Z,832.00
2018-10-19T07:15:29.627Z,872.00
2018-10-19T07:16:29.867Z,892.00
2018-10-19T07:17:30.093Z,940.00
2018-10-19T07:18:30.316Z,1028.00
2018-10-19T07:19:30.544Z,1088.00
2018-10-19T07:20:30.773Z,1108.00
2018-10-19T07:21:31.062Z,1080.00
2018-10-19T07:22:31.244Z,1104.00
2018-10-19T07:23:31.470Z,1240.00
2018-10-19T07:24:31.701Z,1340.00
2018-10-19T07:25:31.946Z,1428.00
2018-10-19T07:26:32.984Z,1524.00
2018-10-19T07:27:32.349Z,1656.00
2018-10-19T07:28:32.574Z,1820.00
2018-10-19T07:29:32.866Z,1876.00
2018-10-19T07:30:33.038Z,1832.00
2018-10-19T07:31:33.264Z,1800.00
2018-10-19T07:32:33.494Z,1860.00
2018-10-19T07:33:33.718Z,1888.00
2018-10-19T07:34:33.949Z,1836.00
2018-10-19T07:35:34.174Z,1760.00
2018-10-19T07:36:34.466Z,1664.00
2018-10-19T07:37:34.623Z,1608.00
2018-10-19T07:38:34.852Z,1584.00
2018-10-19T07:39:44.478Z,1492.00
2018-10-19T07:40:35.355Z,1392.00
2018-10-19T07:41:35.580Z,1324.00
2018-10-19T07:42:35.858Z,1288.00
2018-10-19T07:43:36.026Z,1280.00
2018-10-19T07:44:36.258Z,1304.00
2018-10-19T07:45:36.485Z,1344.00
2018-10-19T07:46:36.729Z,1408.00
2018-10-19T07:47:36.977Z,1468.00
2018-10-19T07:48:37.216Z,1496.00
2018-10-19T07:49:37.393Z,1524.00
2018-10-19T07:50:37.622Z,1500.00
2018-10-19T07:51:37.849Z,1476.00
2018-10-19T07:52:38.070Z,1496.00
2018-10-19T07:53:38.295Z,1500.00
2018-10-19T07:54:38.526Z,1484.00
2018-10-19T07:55:38.746Z,1460.00
2018-10-19T07:56:38.975Z,1440.00
2018-10-19T07:57:39.205Z,1408.00
2018-10-19T07:58:39.434Z,1340.00
2018-10-19T07:59:39.663Z,1316.00
2018-10-19T08:00:39.891Z,1356.00
2018-10-19T08:01:40.119Z,1452.00
2018-10-19T08:02:40.344Z,1516.00
2018-10-19T08:03:40.575Z,1560.00
2018-10-19T08:04:40.807Z,1572.00
2018-10-19T08:05:41.037Z,1536.00
2018-10-19T08:06:41.261Z,1540.00
2018-10-19T08:07:41.501Z,1548.00
2018-10-19T08:08:41.714Z,1556.00
2018-10-19T08:09:41.935Z,1604.00
2018-10-19T08:10:42.179Z,1672.00
2018-10-19T08:11:42.405Z,1720.00
2018-10-19T08:12:42.636Z,1744.00
2018-10-19T08:13:43.508Z,1732.00
2018-10-19T08:14:43.111Z,1736.00
2018-10-19T08:15:43.335Z,1760.00
2018-10-19T08:16:43.559Z,1788.00
2018-10-19T08:17:43.791Z,1860.00
2018-10-19T08:18:44.012Z,1980.00
2018-10-19T08:19:44.240Z,2064.00
2018-10-19T08:20:44.466Z,2120.00
2018-10-19T08:21:44.712Z,2148.00
2018-10-19T08:22:45.507Z,2140.00
2018-10-19T08:23:45.111Z,2120.00
2018-10-19T08:24:45.338Z,2088.00
2018-10-19T08:25:45.562Z,2072.00
2018-10-19T08:26:45.794Z,2152.00
2018-10-19T08:27:46.019Z,2276.00
2018-10-19T08:28:46.259Z,2400.00
2018-10-19T08:29:46.509Z,2516.00
2018-10-19T08:30:46.703Z,2600.00
2018-10-19T08:31:46.929Z,2592.00
2018-10-19T08:32:47.157Z,2556.00
2018-10-19T08:33:47.384Z,2516.00
2018-10-19T08:34:47.617Z,2412.00
2018-10-19T08:35:47.844Z,2288.00
2018-10-19T08:36:48.072Z,2252.00
2018-10-19T08:37:50.008Z,2256.00
2018-10-19T08:38:48.475Z,2208.00
2018-10-19T08:39:48.699Z,2120.00
2018-10-19T08:40:48.931Z,1976.00
2018-10-19T08:41:49.163Z,1880.00
2018-10-19T08:42:49.385Z,1744.00
2018-10-19T08:43:49.614Z,1580.00
2018-10-19T08:44:49.833Z,1468.00
2018-10-19T08:45:50.059Z,1420.00
2018-10-19T08:46:50.277Z,1416.00
2018-10-19T08:47:58.010Z,1412.00
2018-10-19T08:48:50.722Z,1388.00
2018-10-19T08:49:52.503Z,1376.00
2018-10-19T08:50:51.230Z,1376.00
2018-10-19T08:51:51.455Z,1424.00
2018-10-19T08:52:51.694Z,1456.00
2018-10-19T08:53:51.985Z,1496.00
2018-10-19T08:54:54.068Z,1612.00
2018-10-19T08:55:52.346Z,1736.00
2018-10-19T08:56:54.523Z,1908.00
2018-10-19T08:57:52.940Z,2028.00
2018-10-19T08:58:53.072Z,2120.00
2018-10-19T08:59:53.311Z,2172.00
2018-10-19T09:00:53.597Z,2264.00
2018-10-19T09:01:53.821Z,2416.00
2018-10-19T09:02:54.082Z,2644.00
2018-10-19T09:03:54.342Z,2928.00
2018-10-19T09:04:54.560Z,3148.00
2018-10-19T09:05:54.762Z,3432.00
2018-10-19T09:07:10.553Z,3560.00
2018-10-19T09:07:55.797Z,3476.00
2018-10-19T09:08:57.066Z,3368.00
2018-10-19T09:09:55.610Z,3196.00
2018-10-19T09:10:55.887Z,3096.00
2018-10-19T09:11:56.061Z,3072.00
2018-10-19T09:12:56.415Z,3012.00
2018-10-19T09:13:56.533Z,2972.00
2018-10-19T09:14:56.774Z,2952.00
2018-10-19T09:15:58.503Z,2916.00
2018-10-19T09:16:57.302Z,3092.00
2018-10-19T09:17:57.496Z,3372.00
2018-10-19T09:18:57.716Z,3724.00
2018-10-19T09:19:57.952Z,4020.00
2018-10-19T09:20:58.238Z,4180.00
2018-10-19T09:21:58.393Z,4192.00
2018-10-19T09:22:58.619Z,4144.00
2018-10-19T09:24:00.515Z,4052.00
2018-10-19T09:24:59.115Z,3920.00
2018-10-19T09:25:59.349Z,3972.00
2018-10-19T09:26:59.656Z,4120.00
2018-10-19T09:27:59.843Z,4272.00
2018-10-19T09:29:00.139Z,4520.00
2018-10-19T09:30:00.340Z,4840.00
2018-10-19T09:31:08.519Z,5240.00
2018-10-19T09:32:00.719Z,5576.00
2018-10-19T09:33:02.561Z,5720.00
2018-10-19T09:34:01.220Z,5776.00
2018-10-19T09:35:03.032Z,5752.00
2018-10-19T09:36:01.842Z,5696.00
2018-10-19T09:37:03.580Z,5704.00
2018-10-19T09:38:02.249Z,5660.00
2018-10-19T09:39:04.054Z,5768.00
2018-10-19T09:40:02.744Z,5936.00
2018-10-19T09:41:03.061Z,6012.00
2018-10-19T09:42:03.987Z,6096.00
2018-10-19T09:43:03.496Z,6212.00
2018-10-19T09:44:03.696Z,6300.00
2018-10-19T09:45:03.954Z,6204.00
2018-10-19T09:46:06.014Z,6052.00
2018-10-19T09:47:04.387Z,5876.00
2018-10-19T09:48:04.607Z,5804.00
2018-10-19T09:49:04.870Z,6008.00
2018-10-19T09:50:05.048Z,6436.00
2018-10-19T09:51:13.062Z,6744.00
2018-10-19T09:52:05.476Z,6928.00
2018-10-19T09:53:05.713Z,7088.00
2018-10-19T09:54:05.913Z,7152.00
2018-10-19T09:55:06.181Z,7152.00
2018-10-19T09:56:06.395Z,7112.00
2018-10-19T09:57:06.654Z,7036.00
2018-10-19T09:58:30.479Z,6944.00
2018-10-19T09:59:07.100Z,6856.00
2018-10-19T10:00:07.290Z,6844.00
2018-10-19T10:01:07.542Z,6908.00
2018-10-19T10:02:07.828Z,6940.00
2018-10-19T10:03:08.014Z,7020.00
2018-10-19T10:04:08.202Z,7196.00
2018-10-19T10:05:10.031Z,7284.00
2018-10-19T10:06:08.623Z,7284.00
2018-10-19T10:07:08.900Z,7320.00
2018-10-19T10:08:09.109Z,7264.00
2018-10-19T10:09:09.383Z,7192.00
2018-10-19T10:10:11.523Z,7076.00
2018-10-19T10:11:09.906Z,7084.00
2018-10-19T10:12:10.094Z,7228.00
2018-10-19T10:13:10.392Z,7352.00
2018-10-19T10:14:10.578Z,7464.00
2018-10-19T10:15:18.613Z,7444.00
2018-10-19T10:16:10.987Z,7440.00
2018-10-19T10:17:11.244Z,7496.00
2018-10-19T10:18:11.451Z,7564.00
2018-10-19T10:19:11.775Z,7648.00
2018-10-19T10:20:13.527Z,7656.00
2018-10-19T10:21:12.123Z,7624.00
2018-10-19T10:22:14.081Z,7564.00
2018-10-19T10:23:12.635Z,7512.00
2018-10-19T10:24:12.859Z,7472.00
2018-10-19T10:25:13.142Z,7420.00
2018-10-19T10:26:13.314Z,7408.00
2018-10-19T10:27:13.529Z,7468.00
2018-10-19T10:28:13.839Z,7508.00
2018-10-19T10:29:17.522Z,7528.00
2018-10-19T10:30:14.242Z,7508.00
2018-10-19T10:31:16.031Z,7404.00
2018-10-19T10:32:14.777Z,7376.00
2018-10-19T10:33:14.980Z,7308.00
2018-10-19T10:34:15.299Z,7336.00
2018-10-19T10:35:31.032Z,7320.00
2018-10-19T10:36:15.604Z,7316.00
2018-10-19T10:37:31.549Z,7316.00
2018-10-19T10:38:16.038Z,7312.00
2018-10-19T10:39:16.332Z,7312.00
2018-10-19T10:40:41.024Z,7324.00
2018-10-19T10:41:16.712Z,7328.00
2018-10-19T10:42:16.958Z,7324.00
2018-10-19T10:43:17.207Z,7304.00
2018-10-19T10:44:33.051Z,7328.00
2018-10-19T10:45:17.607Z,7352.00
2018-10-19T10:46:19.644Z,7412.00
2018-10-19T10:47:18.132Z,7408.00
2018-10-19T10:48:20.032Z,7424.00
2018-10-19T10:49:34.534Z,7468.00
2018-10-19T10:50:18.854Z,7508.00
2018-10-19T10:51:35.033Z,7660.00
2018-10-19T10:52:19.357Z,7692.00
2018-10-19T10:53:35.529Z,7768.00
2018-10-19T10:54:19.856Z,7760.00
2018-10-19T10:55:20.076Z,7744.00
2018-10-19T10:56:20.296Z,7784.00
2018-10-19T10:57:20.521Z,7692.00
2018-10-19T10:58:28.538Z,7676.00
2018-10-19T10:59:20.995Z,7656.00
2018-10-19T11:00:21.220Z,7632.00
2018-10-19T11:01:37.030Z,7632.00
2018-10-19T11:02:21.728Z,7592.00
2018-10-19T11:03:21.959Z,7604.00
2018-10-19T11:04:22.203Z,7620.00
2018-10-19T11:05:22.454Z,7608.00
2018-10-19T11:06:24.536Z,7576.00
2018-10-19T11:07:23.054Z,7516.00
2018-10-19T11:08:23.119Z,7484.00
2018-10-19T11:09:31.036Z,7428.00
2018-10-19T11:10:23.623Z,7396.00
2018-10-19T11:11:23.853Z,7436.00
2018-10-19T11:12:26.044Z,7480.00
2018-10-19T11:13:24.258Z,7524.00
2018-10-19T11:14:24.487Z,7568.00
2018-10-19T11:15:32.536Z,7636.00
2018-10-19T11:16:25.000Z,7704.00
2018-10-19T11:17:25.226Z,7720.00
2018-10-19T11:18:25.472Z,7748.00
2018-10-19T11:19:25.776Z,7752.00
2018-10-19T11:20:26.960Z,7768.00
2018-10-19T11:21:26.217Z,7784.00
2018-10-19T11:22:26.449Z,7772.00
2018-10-19T11:23:26.677Z,7740.00
2018-10-19T11:24:26.905Z,7724.00
2018-10-19T11:25:27.127Z,7692.00
2018-10-19T11:26:27.349Z,7608.00
2018-10-19T11:27:28.596Z,7536.00
2018-10-19T11:28:27.847Z,7444.00
2018-10-19T11:29:30.042Z,7376.00
2018-10-19T11:30:28.286Z,7264.00
2018-10-19T11:31:28.491Z,7184.00
2018-10-19T11:32:28.738Z,7148.00
2018-10-19T11:33:28.992Z,7112.00
2018-10-19T11:34:31.033Z,7096.00
2018-10-19T11:35:29.385Z,7048.00
2018-10-19T11:36:29.614Z,6972.00
2018-10-19T11:37:45.571Z,6884.00
2018-10-19T11:38:30.119Z,6784.00
2018-10-19T11:39:30.343Z,6784.00
2018-10-19T11:40:30.566Z,6644.00
2018-10-19T11:41:30.795Z,6616.00
2018-10-19T11:42:32.557Z,6624.00
2018-10-19T11:43:31.323Z,6672.00
2018-10-19T11:44:35.045Z,6712.00
2018-10-19T11:45:31.772Z,6728.00
2018-10-19T11:46:31.987Z,6776.00
2018-10-19T11:47:48.046Z,6848.00
2018-10-19T11:48:32.492Z,6960.00
2018-10-19T11:49:32.722Z,6956.00
2018-10-19T11:50:48.547Z,7016.00
2018-10-19T11:51:33.116Z,7060.00
2018-10-19T11:52:33.350Z,7132.00
2018-10-19T11:53:33.576Z,7196.00
2018-10-19T11:54:33.796Z,7228.00
2018-10-19T11:55:49.560Z,7272.00
2018-10-19T11:56:34.240Z,7296.00
2018-10-19T11:57:34.460Z,7308.00
2018-10-19T11:58:34.707Z,7300.00
2018-10-19T11:59:34.972Z,7280.00
2018-10-19T12:00:43.048Z,7280.00
2018-10-19T12:01:35.383Z,7280.00
2018-10-19T12:02:35.607Z,7296.00
2018-10-19T12:03:35.845Z,7356.00
2018-10-19T12:04:36.056Z,7432.00
2018-10-19T12:05:44.051Z,7508.00
2018-10-19T12:06:36.513Z,7544.00
2018-10-19T12:07:36.743Z,7520.00
2018-10-19T12:08:36.959Z,7416.00
2018-10-19T12:09:37.195Z,7276.00
2018-10-19T12:10:45.168Z,7128.00
2018-10-19T12:11:37.636Z,7012.00
2018-10-19T12:12:37.866Z,6932.00
2018-10-19T12:13:38.124Z,6892.00
2018-10-19T12:14:38.372Z,6880.00
2018-10-19T12:15:42.552Z,6840.00
2018-10-19T12:16:38.902Z,6840.00
2018-10-19T12:17:39.009Z,6752.00
2018-10-19T12:18:39.271Z,6736.00
2018-10-19T12:19:39.519Z,6756.00
2018-10-19T12:20:47.606Z,6692.00
2018-10-19T12:21:40.009Z,6664.00
2018-10-19T12:22:40.236Z,6660.00
2018-10-19T12:23:40.456Z,6676.00
2018-10-19T12:24:40.685Z,6664.00
2018-10-19T12:25:56.563Z,6604.00
2018-10-19T12:26:41.124Z,6504.00
2018-10-19T12:27:41.355Z,6448.00
2018-10-19T12:28:57.560Z,6432.00
2018-10-19T12:29:41.751Z,6416.00
2018-10-19T12:30:41.980Z,6380.00
2018-10-19T12:31:42.227Z,6356.00
2018-10-19T12:32:42.478Z,6356.00
2018-10-19T12:33:58.558Z,6332.00
2018-10-19T12:34:42.889Z,6296.00
2018-10-19T12:35:43.119Z,6248.00
2018-10-19T12:36:59.076Z,6196.00
2018-10-19T12:37:43.629Z,6140.00
2018-10-19T12:38:45.556Z,6084.00
2018-10-19T12:39:44.036Z,6040.00
2018-10-19T12:40:44.263Z,6020.00
2018-10-19T12:41:44.488Z,6016.00
2018-10-19T12:42:44.720Z,6036.00